sensor_id;sensor_type;location;lat;lon;timestamp;pressure;altitude;pressure_sealevel;temperature;humidity
35331;BME280;21441;52.190;20.910;2023-05-11T00:02:23;100687.59;;;9.49;45.09
35331;BME280;21441;52.190;20.910;2023-05-11T00:04:50;100682.34;;;9.39;45.11
35331;BME280;21441;52.190;20.910;2023-05-11T00:07:18;100683.19;;;9.40;45.29
35331;BME280;21441;52.190;20.910;2023-05-11T00:09:44;100676.78;;;9.33;44.92
35331;BME280;21441;52.190;20.910;2023-05-11T00:12:12;100670.25;;;9.45;44.39
35331;BME280;21441;52.190;20.910;2023-05-11T00:14:39;100682.28;;;9.49;44.48
35331;BME280;21441;52.190;20.910;2023-05-11T00:17:06;100678.38;;;9.43;44.38
35331;BME280;21441;52.190;20.910;2023-05-11T00:19:35;100678.78;;;9.48;44.30
35331;BME280;21441;52.190;20.910;2023-05-11T00:22:02;100679.38;;;9.42;44.62
35331;BME280;21441;52.190;20.910;2023-05-11T00:24:29;100677.56;;;9.43;44.81
35331;BME280;21441;52.190;20.910;2023-05-11T00:26:56;100679.84;;;9.38;44.66
35331;BME280;21441;52.190;20.910;2023-05-11T00:29:24;100681.97;;;9.34;44.73
35331;BME280;21441;52.190;20.910;2023-05-11T00:31:51;100680.69;;;9.38;44.51
35331;BME280;21441;52.190;20.910;2023-05-11T00:34:18;100680.69;;;9.38;44.81
35331;BME280;21441;52.190;20.910;2023-05-11T00:36:46;100685.53;;;9.25;44.78
35331;BME280;21441;52.190;20.910;2023-05-11T00:39:14;100672.94;;;9.27;44.98
35331;BME280;21441;52.190;20.910;2023-05-11T00:41:42;100677.25;;;9.28;45.23
35331;BME280;21441;52.190;20.910;2023-05-11T00:44:09;100686.69;;;9.22;45.36
35331;BME280;21441;52.190;20.910;2023-05-11T00:46:37;100673.44;;;9.30;44.93
35331;BME280;21441;52.190;20.910;2023-05-11T00:49:04;100675.28;;;9.30;45.21
35331;BME280;21441;52.190;20.910;2023-05-11T00:51:32;100672.75;;;9.28;45.58
35331;BME280;21441;52.190;20.910;2023-05-11T00:54:02;100671.56;;;9.23;45.63
35331;BME280;21441;52.190;20.910;2023-05-11T00:56:29;100673.84;;;9.18;45.76
35331;BME280;21441;52.190;20.910;2023-05-11T00:58:56;100674.50;;;9.20;45.52
35331;BME280;21441;52.190;20.910;2023-05-11T01:01:23;100668.66;;;9.16;45.68
35331;BME280;21441;52.190;20.910;2023-05-11T01:03:51;100674.94;;;9.15;46.13
35331;BME280;21441;52.190;20.910;2023-05-11T01:06:26;100670.91;;;9.11;45.63
35331;BME280;21441;52.190;20.910;2023-05-11T01:08:58;100678.47;;;9.16;46.01
35331;BME280;21441;52.190;20.910;2023-05-11T01:11:36;100672.06;;;9.08;46.22
35331;BME280;21441;52.190;20.910;2023-05-11T01:14:09;100662.03;;;9.02;45.85
35331;BME280;21441;52.190;20.910;2023-05-11T01:16:40;100671.13;;;9.00;45.78
35331;BME280;21441;52.190;20.910;2023-05-11T01:19:18;100664.94;;;9.09;45.86
35331;BME280;21441;52.190;20.910;2023-05-11T01:21:50;100670.75;;;8.95;46.07
35331;BME280;21441;52.190;20.910;2023-05-11T01:24:31;100662.78;;;8.95;45.75
35331;BME280;21441;52.190;20.910;2023-05-11T01:27:19;100658.97;;;8.79;46.41
35331;BME280;21441;52.190;20.910;2023-05-11T01:30:10;100673.56;;;8.93;46.00
35331;BME280;21441;52.190;20.910;2023-05-11T01:32:39;100662.31;;;8.81;46.02
35331;BME280;21441;52.190;20.910;2023-05-11T01:35:12;100658.59;;;8.92;45.86
35331;BME280;21441;52.190;20.910;2023-05-11T01:37:45;100662.31;;;8.81;46.37
35331;BME280;21441;52.190;20.910;2023-05-11T01:40:15;100654.78;;;8.77;46.24
35331;BME280;21441;52.190;20.910;2023-05-11T01:42:46;100660.94;;;8.95;46.07
35331;BME280;21441;52.190;20.910;2023-05-11T01:45:17;100660.94;;;8.95;45.72
35331;BME280;21441;52.190;20.910;2023-05-11T01:47:47;100655.47;;;8.79;45.93
35331;BME280;21441;52.190;20.910;2023-05-11T01:50:16;100653.63;;;8.79;45.84
35331;BME280;21441;52.190;20.910;2023-05-11T01:52:47;100658.56;;;8.74;46.08
35331;BME280;21441;52.190;20.910;2023-05-11T01:55:18;100658.03;;;8.71;46.12
35331;BME280;21441;52.190;20.910;2023-05-11T01:57:50;100657.47;;;8.67;46.32
35331;BME280;21441;52.190;20.910;2023-05-11T02:00:20;100663.78;;;8.66;46.43
35331;BME280;21441;52.190;20.910;2023-05-11T02:02:48;100665.69;;;8.74;46.24
35331;BME280;21441;52.190;20.910;2023-05-11T02:05:19;100662.91;;;8.75;46.06
35331;BME280;21441;52.190;20.910;2023-05-11T02:07:48;100664.16;;;8.71;46.36
35331;BME280;21441;52.190;20.910;2023-05-11T02:10:17;100669.72;;;8.78;46.03
35331;BME280;21441;52.190;20.910;2023-05-11T02:12:46;100666.16;;;8.69;46.46
35331;BME280;21441;52.190;20.910;2023-05-11T02:15:20;100658.84;;;8.71;46.22
35331;BME280;21441;52.190;20.910;2023-05-11T02:17:49;100663.16;;;8.54;46.72
35331;BME280;21441;52.190;20.910;2023-05-11T02:20:18;100666.75;;;8.63;46.23
35331;BME280;21441;52.190;20.910;2023-05-11T02:22:47;100660.56;;;8.62;46.61
35331;BME280;21441;52.190;20.910;2023-05-11T02:25:15;100670.25;;;8.63;46.46
35331;BME280;21441;52.190;20.910;2023-05-11T02:27:43;100659.72;;;8.72;45.93
35331;BME280;21441;52.190;20.910;2023-05-11T02:30:11;100663.03;;;8.74;45.30
35331;BME280;21441;52.190;20.910;2023-05-11T02:32:46;100662.09;;;8.65;45.90
35331;BME280;21441;52.190;20.910;2023-05-11T02:35:17;100657.34;;;8.68;46.29
35331;BME280;21441;52.190;20.910;2023-05-11T02:37:47;100665.03;;;8.72;45.90
35331;BME280;21441;52.190;20.910;2023-05-11T02:40:17;100670.34;;;8.72;46.24
35331;BME280;21441;52.190;20.910;2023-05-11T02:42:47;100666.44;;;8.66;46.24
35331;BME280;21441;52.190;20.910;2023-05-11T02:45:16;100669.19;;;8.56;46.09
35331;BME280;21441;52.190;20.910;2023-05-11T02:47:55;100673.34;;;8.59;46.19
35331;BME280;21441;52.190;20.910;2023-05-11T02:50:26;100664.09;;;8.63;46.32
35331;BME280;21441;52.190;20.910;2023-05-11T02:52:58;100670.34;;;8.72;45.72
35331;BME280;21441;52.190;20.910;2023-05-11T02:55:28;100674.13;;;8.69;46.10
35331;BME280;21441;52.190;20.910;2023-05-11T02:57:56;100676.28;;;8.56;46.19
35331;BME280;21441;52.190;20.910;2023-05-11T03:00:23;100674.81;;;8.71;45.53
35331;BME280;21441;52.190;20.910;2023-05-11T03:02:52;100677.88;;;8.76;45.55
35331;BME280;21441;52.190;20.910;2023-05-11T03:05:19;100665.03;;;8.72;45.82
35331;BME280;21441;52.190;20.910;2023-05-11T03:07:46;100670.59;;;8.78;45.64
35331;BME280;21441;52.190;20.910;2023-05-11T03:10:13;100676.06;;;8.77;45.66
35331;BME280;21441;52.190;20.910;2023-05-11T03:12:41;100672.41;;;8.78;45.65
35331;BME280;21441;52.190;20.910;2023-05-11T03:15:09;100673.78;;;8.82;45.62
35331;BME280;21441;52.190;20.910;2023-05-11T03:17:38;100677.25;;;8.82;45.70
35331;BME280;21441;52.190;20.910;2023-05-11T03:20:07;100671.22;;;8.90;45.72
35331;BME280;21441;52.190;20.910;2023-05-11T03:22:35;100677.97;;;8.84;46.28
35331;BME280;21441;52.190;20.910;2023-05-11T03:25:04;100676.63;;;8.98;45.60
35331;BME280;21441;52.190;20.910;2023-05-11T03:27:33;100678.97;;;9.01;45.88
35331;BME280;21441;52.190;20.910;2023-05-11T03:30:03;100680.50;;;9.04;46.10
35331;BME280;21441;52.190;20.910;2023-05-11T03:32:33;100683.03;;;9.05;45.85
35331;BME280;21441;52.190;20.910;2023-05-11T03:35:01;100684.41;;;9.09;45.97
35331;BME280;21441;52.190;20.910;2023-05-11T03:37:30;100688.94;;;9.17;45.79
35331;BME280;21441;52.190;20.910;2023-05-11T03:39:58;100687.81;;;9.20;45.32
35331;BME280;21441;52.190;20.910;2023-05-11T03:42:26;100695.41;;;9.15;45.64
35331;BME280;21441;52.190;20.910;2023-05-11T03:44:55;100687.44;;;9.33;45.67
35331;BME280;21441;52.190;20.910;2023-05-11T03:47:25;100696.56;;;9.30;45.13
35331;BME280;21441;52.190;20.910;2023-05-11T03:49:54;100688.81;;;9.37;45.20
35331;BME280;21441;52.190;20.910;2023-05-11T03:52:22;100702.94;;;9.37;45.64
35331;BME280;21441;52.190;20.910;2023-05-11T03:54:50;100696.50;;;9.40;45.32
35331;BME280;21441;52.190;20.910;2023-05-11T03:57:18;100698.94;;;9.51;45.61
35331;BME280;21441;52.190;20.910;2023-05-11T03:59:45;100699.84;;;9.60;45.38
35331;BME280;21441;52.190;20.910;2023-05-11T04:02:12;100702.28;;;9.53;45.68
35331;BME280;21441;52.190;20.910;2023-05-11T04:04:39;100707.59;;;9.71;45.11
35331;BME280;21441;52.190;20.910;2023-05-11T04:07:06;100705.28;;;9.76;45.17
35331;BME280;21441;52.190;20.910;2023-05-11T04:09:33;100704.16;;;9.79;45.10
35331;BME280;21441;52.190;20.910;2023-05-11T04:12:02;100710.78;;;9.75;45.27
35331;BME280;21441;52.190;20.910;2023-05-11T04:14:29;100700.66;;;9.78;45.07
35331;BME280;21441;52.190;20.910;2023-05-11T04:16:57;100712.13;;;9.79;44.98
35331;BME280;21441;52.190;20.910;2023-05-11T04:19:24;100707.41;;;9.90;44.84
35331;BME280;21441;52.190;20.910;2023-05-11T04:21:51;100694.72;;;9.84;45.10
35331;BME280;21441;52.190;20.910;2023-05-11T04:24:18;100701.28;;;9.98;44.35
35331;BME280;21441;52.190;20.910;2023-05-11T04:26:45;100709.63;;;9.95;44.41
35331;BME280;21441;52.190;20.910;2023-05-11T04:29:13;100708.47;;;9.98;44.55
35331;BME280;21441;52.190;20.910;2023-05-11T04:31:41;100712.56;;;10.10;44.22
35331;BME280;21441;52.190;20.910;2023-05-11T04:34:08;100712.44;;;9.94;44.66
35331;BME280;21441;52.190;20.910;2023-05-11T04:36:35;100700.06;;;10.10;44.25
35331;BME280;21441;52.190;20.910;2023-05-11T04:39:02;100705.69;;;10.07;44.61
35331;BME280;21441;52.190;20.910;2023-05-11T04:41:30;100709.84;;;10.28;44.23
35331;BME280;21441;52.190;20.910;2023-05-11T04:43:58;100713.47;;;10.27;44.26
35331;BME280;21441;52.190;20.910;2023-05-11T04:46:26;100713.22;;;10.38;44.43
35331;BME280;21441;52.190;20.910;2023-05-11T04:48:53;100714.78;;;10.49;44.16
35331;BME280;21441;52.190;20.910;2023-05-11T04:51:21;100711.84;;;10.60;43.92
35331;BME280;21441;52.190;20.910;2023-05-11T04:53:48;100715.53;;;10.59;43.60
35331;BME280;21441;52.190;20.910;2023-05-11T04:56:15;100715.91;;;10.72;43.97
35331;BME280;21441;52.190;20.910;2023-05-11T04:58:42;100719.56;;;10.63;43.71
35331;BME280;21441;52.190;20.910;2023-05-11T05:01:10;100711.41;;;10.73;43.69
35331;BME280;21441;52.190;20.910;2023-05-11T05:03:38;100716.88;;;10.63;43.56
35331;BME280;21441;52.190;20.910;2023-05-11T05:06:06;100717.41;;;10.75;43.65
35331;BME280;21441;52.190;20.910;2023-05-11T05:08:32;100718.81;;;10.87;43.01
35331;BME280;21441;52.190;20.910;2023-05-11T05:11:00;100719.41;;;10.73;43.96
35331;BME280;21441;52.190;20.910;2023-05-11T05:13:27;100727.53;;;11.06;43.17
35331;BME280;21441;52.190;20.910;2023-05-11T05:15:54;100721.66;;;10.94;43.72
35331;BME280;21441;52.190;20.910;2023-05-11T05:18:21;100732.72;;;11.07;43.59
35331;BME280;21441;52.190;20.910;2023-05-11T05:20:50;100725.59;;;11.24;43.63
35331;BME280;21441;52.190;20.910;2023-05-11T05:23:16;100730.59;;;11.27;43.48
35331;BME280;21441;52.190;20.910;2023-05-11T05:25:44;100731.31;;;11.38;43.04
35331;BME280;21441;52.190;20.910;2023-05-11T05:28:11;100725.47;;;11.42;43.13
35331;BME280;21441;52.190;20.910;2023-05-11T05:30:38;100733.00;;;11.55;43.64
35331;BME280;21441;52.190;20.910;2023-05-11T05:33:05;100730.31;;;11.63;43.02
35331;BME280;21441;52.190;20.910;2023-05-11T05:35:33;100730.97;;;11.49;42.79
35331;BME280;21441;52.190;20.910;2023-05-11T05:38:01;100725.97;;;11.78;41.99
35331;BME280;21441;52.190;20.910;2023-05-11T05:40:28;100733.38;;;11.93;42.27
35331;BME280;21441;52.190;20.910;2023-05-11T05:42:55;100705.28;;;11.72;41.91
35331;BME280;21441;52.190;20.910;2023-05-11T05:45:22;100745.72;;;11.94;41.86
35331;BME280;21441;52.190;20.910;2023-05-11T05:47:49;100742.88;;;12.04;42.25
35331;BME280;21441;52.190;20.910;2023-05-11T05:50:17;100734.50;;;12.23;41.83
35331;BME280;21441;52.190;20.910;2023-05-11T05:52:44;100745.47;;;12.45;41.39
35331;BME280;21441;52.190;20.910;2023-05-11T05:55:12;100739.28;;;12.61;41.40
35331;BME280;21441;52.190;20.910;2023-05-11T05:57:39;100734.59;;;12.63;40.92
35331;BME280;21441;52.190;20.910;2023-05-11T06:00:07;100741.44;;;12.65;41.26
35331;BME280;21441;52.190;20.910;2023-05-11T06:02:35;100735.56;;;12.70;40.89
35331;BME280;21441;52.190;20.910;2023-05-11T06:05:03;100734.94;;;12.91;40.62
35331;BME280;21441;52.190;20.910;2023-05-11T06:07:30;100732.94;;;12.93;40.09
35331;BME280;21441;52.190;20.910;2023-05-11T06:09:58;100727.97;;;13.13;40.06
35331;BME280;21441;52.190;20.910;2023-05-11T06:12:27;100737.56;;;13.07;39.41
35331;BME280;21441;52.190;20.910;2023-05-11T06:14:54;100732.41;;;12.97;38.99
35331;BME280;21441;52.190;20.910;2023-05-11T06:17:21;100735.69;;;13.16;39.50
35331;BME280;21441;52.190;20.910;2023-05-11T06:19:48;100744.00;;;13.29;39.76
35331;BME280;21441;52.190;20.910;2023-05-11T06:22:15;100738.84;;;13.51;39.39
35331;BME280;21441;52.190;20.910;2023-05-11T06:24:43;100736.16;;;13.74;39.34
35331;BME280;21441;52.190;20.910;2023-05-11T06:27:10;100738.06;;;13.88;38.98
35331;BME280;21441;52.190;20.910;2023-05-11T06:29:38;100735.72;;;13.85;37.45
35331;BME280;21441;52.190;20.910;2023-05-11T06:32:06;100738.06;;;13.88;37.91
35331;BME280;21441;52.190;20.910;2023-05-11T06:34:34;100739.88;;;14.11;37.69
35331;BME280;21441;52.190;20.910;2023-05-11T06:37:01;100744.22;;;14.12;38.13
35331;BME280;21441;52.190;20.910;2023-05-11T06:39:28;100745.91;;;14.28;37.76
35331;BME280;21441;52.190;20.910;2023-05-11T06:41:55;100734.81;;;14.31;36.31
35331;BME280;21441;52.190;20.910;2023-05-11T06:44:22;100737.88;;;14.28;35.77
35331;BME280;21441;52.190;20.910;2023-05-11T06:46:50;100744.63;;;14.23;36.28
35331;BME280;21441;52.190;20.910;2023-05-11T06:49:18;100738.69;;;14.28;36.08
35331;BME280;21441;52.190;20.910;2023-05-11T06:51:45;100743.13;;;14.36;35.63
35331;BME280;21441;52.190;20.910;2023-05-11T06:54:12;100748.88;;;14.33;35.84
35331;BME280;21441;52.190;20.910;2023-05-11T06:56:39;100751.69;;;14.54;36.00
35331;BME280;21441;52.190;20.910;2023-05-11T06:59:06;100749.16;;;14.53;35.39
35331;BME280;21441;52.190;20.910;2023-05-11T07:01:33;100738.56;;;14.59;35.57
35331;BME280;21441;52.190;20.910;2023-05-11T07:04:02;100749.03;;;14.69;35.47
35331;BME280;21441;52.190;20.910;2023-05-11T07:06:29;100738.47;;;14.82;34.30
35331;BME280;21441;52.190;20.910;2023-05-11T07:08:56;100744.28;;;14.86;34.49
35331;BME280;21441;52.190;20.910;2023-05-11T07:11:23;100747.13;;;14.99;34.02
35331;BME280;21441;52.190;20.910;2023-05-11T07:13:51;100745.72;;;15.18;35.02
35331;BME280;21441;52.190;20.910;2023-05-11T07:16:18;100741.09;;;15.12;34.56
35331;BME280;21441;52.190;20.910;2023-05-11T07:18:45;100744.06;;;15.17;33.18
35331;BME280;21441;52.190;20.910;2023-05-11T07:21:14;100727.16;;;15.23;33.88
35331;BME280;21441;52.190;20.910;2023-05-11T07:23:41;100731.91;;;15.43;34.89
35331;BME280;21441;52.190;20.910;2023-05-11T07:26:09;100733.84;;;15.49;33.74
35331;BME280;21441;52.190;20.910;2023-05-11T07:28:36;100732.50;;;15.38;33.49
35331;BME280;21441;52.190;20.910;2023-05-11T07:31:03;100733.09;;;15.19;34.02
35331;BME280;21441;52.190;20.910;2023-05-11T07:33:31;100716.88;;;15.48;31.34
35331;BME280;21441;52.190;20.910;2023-05-11T07:35:59;100734.56;;;15.58;31.89
35331;BME280;21441;52.190;20.910;2023-05-11T07:38:28;100733.41;;;15.67;31.57
35331;BME280;21441;52.190;20.910;2023-05-11T07:40:55;100730.81;;;15.59;31.75
35331;BME280;21441;52.190;20.910;2023-05-11T07:43:22;100722.03;;;15.86;31.92
35331;BME280;21441;52.190;20.910;2023-05-11T07:45:50;100724.34;;;15.90;30.13
35331;BME280;21441;52.190;20.910;2023-05-11T07:48:17;100721.78;;;15.81;29.95
35331;BME280;21441;52.190;20.910;2023-05-11T07:50:44;100724.50;;;15.66;30.02
35331;BME280;21441;52.190;20.910;2023-05-11T07:53:11;100742.41;;;15.74;30.22
35331;BME280;21441;52.190;20.910;2023-05-11T07:55:39;100738.94;;;15.80;31.93
35331;BME280;21441;52.190;20.910;2023-05-11T07:58:07;100734.34;;;15.74;31.90
35331;BME280;21441;52.190;20.910;2023-05-11T08:00:34;100721.13;;;15.79;31.66
35331;BME280;21441;52.190;20.910;2023-05-11T08:03:01;100741.16;;;15.98;31.36
35331;BME280;21441;52.190;20.910;2023-05-11T08:05:29;100727.63;;;15.92;31.75
35331;BME280;21441;52.190;20.910;2023-05-11T08:07:57;100718.31;;;16.16;30.97
35331;BME280;21441;52.190;20.910;2023-05-11T08:10:24;100721.41;;;16.13;31.29
35331;BME280;21441;52.190;20.910;2023-05-11T08:12:53;100734.16;;;16.04;31.10
35331;BME280;21441;52.190;20.910;2023-05-11T08:15:20;100722.38;;;15.77;31.22
35331;BME280;21441;52.190;20.910;2023-05-11T08:17:47;100726.16;;;16.11;31.18
35331;BME280;21441;52.190;20.910;2023-05-11T08:20:14;100726.53;;;16.07;29.76
35331;BME280;21441;52.190;20.910;2023-05-11T08:22:43;100723.34;;;15.97;30.46
35331;BME280;21441;52.190;20.910;2023-05-11T08:25:10;100720.03;;;15.95;30.63
35331;BME280;21441;52.190;20.910;2023-05-11T08:27:38;100712.78;;;16.24;30.21
35331;BME280;21441;52.190;20.910;2023-05-11T08:30:07;100709.41;;;16.15;29.86
35331;BME280;21441;52.190;20.910;2023-05-11T08:32:35;100719.97;;;16.17;29.72
35331;BME280;21441;52.190;20.910;2023-05-11T08:35:05;100712.34;;;16.20;29.43
35331;BME280;21441;52.190;20.910;2023-05-11T08:37:32;100719.13;;;16.44;29.53
35331;BME280;21441;52.190;20.910;2023-05-11T08:40:00;100718.28;;;16.44;30.03
35331;BME280;21441;52.190;20.910;2023-05-11T08:42:28;100714.13;;;16.41;30.68
35331;BME280;21441;52.190;20.910;2023-05-11T08:44:58;100726.84;;;16.54;30.46
35331;BME280;21441;52.190;20.910;2023-05-11T08:47:30;100718.31;;;16.50;31.38
35331;BME280;21441;52.190;20.910;2023-05-11T08:49:57;100729.41;;;16.34;30.55
35331;BME280;21441;52.190;20.910;2023-05-11T08:52:25;100717.97;;;16.25;31.13
35331;BME280;21441;52.190;20.910;2023-05-11T08:54:52;100709.84;;;16.47;31.65
35331;BME280;21441;52.190;20.910;2023-05-11T08:57:20;100697.69;;;16.64;29.32
35331;BME280;21441;52.190;20.910;2023-05-11T08:59:50;100700.81;;;16.68;30.07
35331;BME280;21441;52.190;20.910;2023-05-11T09:02:18;100699.97;;;16.67;29.21
35331;BME280;21441;52.190;20.910;2023-05-11T09:04:48;100721.91;;;16.58;29.51
35331;BME280;21441;52.190;20.910;2023-05-11T09:07:17;100710.47;;;16.49;30.29
35331;BME280;21441;52.190;20.910;2023-05-11T09:09:44;100720.91;;;16.65;30.53
35331;BME280;21441;52.190;20.910;2023-05-11T09:12:12;100728.69;;;16.47;30.98
35331;BME280;21441;52.190;20.910;2023-05-11T09:14:39;100720.34;;;16.42;30.48
35331;BME280;21441;52.190;20.910;2023-05-11T09:17:07;100711.94;;;16.52;30.99
35331;BME280;21441;52.190;20.910;2023-05-11T09:19:34;100702.47;;;16.62;30.07
35331;BME280;21441;52.190;20.910;2023-05-11T09:22:03;100704.47;;;16.88;30.74
35331;BME280;21441;52.190;20.910;2023-05-11T09:24:31;100691.53;;;16.77;30.10
35331;BME280;21441;52.190;20.910;2023-05-11T09:27:07;100680.88;;;16.97;30.64
35331;BME280;21441;52.190;20.910;2023-05-11T09:29:34;100693.88;;;16.87;30.89
35331;BME280;21441;52.190;20.910;2023-05-11T09:32:02;100699.47;;;16.85;30.88
35331;BME280;21441;52.190;20.910;2023-05-11T09:34:29;100697.59;;;16.86;29.89
35331;BME280;21441;52.190;20.910;2023-05-11T09:36:56;100690.22;;;17.08;29.99
35331;BME280;21441;52.190;20.910;2023-05-11T09:39:32;100693.94;;;17.07;29.65
35331;BME280;21441;52.190;20.910;2023-05-11T09:42:13;100694.00;;;17.27;30.28
35331;BME280;21441;52.190;20.910;2023-05-11T09:44:40;100704.25;;;16.90;29.19
35331;BME280;21441;52.190;20.910;2023-05-11T09:47:12;100682.66;;;16.83;29.44
35331;BME280;21441;52.190;20.910;2023-05-11T09:49:40;100690.75;;;16.83;29.70
35331;BME280;21441;52.190;20.910;2023-05-11T09:52:09;100683.16;;;17.00;29.18
35331;BME280;21441;52.190;20.910;2023-05-11T09:54:41;100681.97;;;17.23;30.23
35331;BME280;21441;52.190;20.910;2023-05-11T09:57:22;100671.63;;;17.33;29.23
35331;BME280;21441;52.190;20.910;2023-05-11T09:59:50;100684.28;;;17.46;28.87
35331;BME280;21441;52.190;20.910;2023-05-11T10:02:20;100677.25;;;17.65;29.32
35331;BME280;21441;52.190;20.910;2023-05-11T10:04:47;100681.41;;;17.81;29.38
35331;BME280;21441;52.190;20.910;2023-05-11T10:07:26;100677.25;;;17.65;28.67
35331;BME280;21441;52.190;20.910;2023-05-11T10:09:56;100689.06;;;17.50;28.30
35331;BME280;21441;52.190;20.910;2023-05-11T10:12:25;100683.06;;;17.62;28.46
35331;BME280;21441;52.190;20.910;2023-05-11T10:14:54;100672.06;;;17.50;28.25
35331;BME280;21441;52.190;20.910;2023-05-11T10:17:22;100675.78;;;17.62;28.72
35331;BME280;21441;52.190;20.910;2023-05-11T10:19:53;100655.25;;;17.61;28.12
35331;BME280;21441;52.190;20.910;2023-05-11T10:22:23;100672.72;;;17.99;28.36
35331;BME280;21441;52.190;20.910;2023-05-11T10:24:50;100654.63;;;17.99;27.86
35331;BME280;21441;52.190;20.910;2023-05-11T10:27:20;100668.75;;;18.01;28.05
35331;BME280;21441;52.190;20.910;2023-05-11T10:29:48;100662.91;;;18.11;28.92
35331;BME280;21441;52.190;20.910;2023-05-11T10:32:16;100662.13;;;17.97;28.19
35331;BME280;21441;52.190;20.910;2023-05-11T10:34:45;100659.84;;;18.01;28.63
35331;BME280;21441;52.190;20.910;2023-05-11T10:37:14;100649.63;;;18.23;28.24
35331;BME280;21441;52.190;20.910;2023-05-11T10:39:42;100652.25;;;18.43;28.08
35331;BME280;21441;52.190;20.910;2023-05-11T10:42:24;100666.06;;;18.01;29.03
35331;BME280;21441;52.190;20.910;2023-05-11T10:45:15;100648.38;;;18.12;29.68
35331;BME280;21441;52.190;20.910;2023-05-11T10:48:19;100644.00;;;18.18;28.52
35331;BME280;21441;52.190;20.910;2023-05-11T10:51:12;100650.81;;;18.40;28.93
35331;BME280;21441;52.190;20.910;2023-05-11T10:53:57;100626.56;;;18.27;27.99
35331;BME280;21441;52.190;20.910;2023-05-11T10:56:51;100638.75;;;18.43;28.11
35331;BME280;21441;52.190;20.910;2023-05-11T10:59:38;100650.34;;;18.50;28.07
35331;BME280;21441;52.190;20.910;2023-05-11T11:02:08;100639.06;;;18.73;29.52
35331;BME280;21441;52.190;20.910;2023-05-11T11:04:43;100634.47;;;18.80;28.71
35331;BME280;21441;52.190;20.910;2023-05-11T11:07:11;100634.19;;;18.95;29.91
35331;BME280;21441;52.190;20.910;2023-05-11T11:09:50;100640.25;;;18.77;28.31
35331;BME280;21441;52.190;20.910;2023-05-11T11:12:18;100640.91;;;18.79;28.38
35331;BME280;21441;52.190;20.910;2023-05-11T11:14:54;100623.22;;;18.76;28.46
35331;BME280;21441;52.190;20.910;2023-05-11T11:17:23;100621.53;;;18.89;27.97
35331;BME280;21441;52.190;20.910;2023-05-11T11:19:52;100615.91;;;18.90;27.76
35331;BME280;21441;52.190;20.910;2023-05-11T11:22:43;100626.16;;;19.13;28.63
35331;BME280;21441;52.190;20.910;2023-05-11T11:25:12;100626.47;;;19.30;28.16
35331;BME280;21441;52.190;20.910;2023-05-11T11:27:56;100629.63;;;19.21;27.78
35331;BME280;21441;52.190;20.910;2023-05-11T11:30:26;100630.00;;;19.31;27.60
35331;BME280;21441;52.190;20.910;2023-05-11T11:33:30;100628.41;;;19.48;28.26
35331;BME280;21441;52.190;20.910;2023-05-11T11:35:58;100626.78;;;19.72;28.17
35331;BME280;21441;52.190;20.910;2023-05-11T11:38:26;100615.34;;;19.70;27.52
35331;BME280;21441;52.190;20.910;2023-05-11T11:40:55;100611.25;;;19.61;28.37
35331;BME280;21441;52.190;20.910;2023-05-11T11:43:23;100619.94;;;19.70;28.23
35331;BME280;21441;52.190;20.910;2023-05-11T11:45:53;100623.28;;;19.65;27.68
35331;BME280;21441;52.190;20.910;2023-05-11T11:48:22;100622.22;;;19.41;27.58
35331;BME280;21441;52.190;20.910;2023-05-11T11:51:01;100623.72;;;19.87;27.95
35331;BME280;21441;52.190;20.910;2023-05-11T11:53:58;100620.00;;;20.25;27.50
35331;BME280;21441;52.190;20.910;2023-05-11T11:56:44;100633.25;;;19.65;27.52
35331;BME280;21441;52.190;20.910;2023-05-11T11:59:12;100630.44;;;19.28;27.99
35331;BME280;21441;52.190;20.910;2023-05-11T12:01:43;100627.22;;;19.12;28.22
35331;BME280;21441;52.190;20.910;2023-05-11T12:04:30;100618.81;;;19.21;28.22
35331;BME280;21441;52.190;20.910;2023-05-11T12:07:02;100627.44;;;19.11;28.82
35331;BME280;21441;52.190;20.910;2023-05-11T12:09:32;100626.56;;;19.17;28.01
35331;BME280;21441;52.190;20.910;2023-05-11T12:12:03;100619.31;;;19.11;29.54
35331;BME280;21441;52.190;20.910;2023-05-11T12:14:31;100626.22;;;19.32;28.38
35331;BME280;21441;52.190;20.910;2023-05-11T12:17:07;100616.72;;;19.54;28.06
35331;BME280;21441;52.190;20.910;2023-05-11T12:19:41;100616.56;;;19.93;28.60
35331;BME280;21441;52.190;20.910;2023-05-11T12:22:09;100612.66;;;19.89;27.83
35331;BME280;21441;52.190;20.910;2023-05-11T12:24:39;100611.69;;;19.83;27.81
35331;BME280;21441;52.190;20.910;2023-05-11T12:27:07;100609.22;;;20.00;27.85
35331;BME280;21441;52.190;20.910;2023-05-11T12:29:34;100596.59;;;20.12;27.71
35331;BME280;21441;52.190;20.910;2023-05-11T12:32:01;100594.47;;;20.33;27.32
35331;BME280;21441;52.190;20.910;2023-05-11T12:34:29;100603.06;;;20.67;28.29
35331;BME280;21441;52.190;20.910;2023-05-11T12:36:57;100605.38;;;20.45;28.24
35331;BME280;21441;52.190;20.910;2023-05-11T12:39:26;100593.28;;;19.92;28.36
35331;BME280;21441;52.190;20.910;2023-05-11T12:41:55;100599.97;;;20.08;28.18
35331;BME280;21441;52.190;20.910;2023-05-11T12:44:23;100602.75;;;20.01;28.40
35331;BME280;21441;52.190;20.910;2023-05-11T12:46:51;100595.19;;;19.85;27.46
35331;BME280;21441;52.190;20.910;2023-05-11T12:49:19;100590.13;;;19.95;26.90
35331;BME280;21441;52.190;20.910;2023-05-11T12:51:57;100587.94;;;20.22;27.72
35331;BME280;21441;52.190;20.910;2023-05-11T12:54:29;100588.78;;;20.53;28.15
35331;BME280;21441;52.190;20.910;2023-05-11T12:56:56;100586.16;;;20.16;27.73